sensor_id;sensor_type;location;lat;lon;timestamp;pressure;altitude;pressure_sealevel;temperature;humidity
39954;BME280;25631;51.516;-0.470;2022-08-19T00:00:32;101088.80;;;19.30;43.79
39954;BME280;25631;51.516;-0.470;2022-08-19T00:03:08;101086.49;;;19.32;43.65
39954;BME280;25631;51.516;-0.470;2022-08-19T00:05:45;101082.77;;;19.54;43.64
39954;BME280;25631;51.516;-0.470;2022-08-19T00:08:21;101085.74;;;19.68;43.69
39954;BME280;25631;51.516;-0.470;2022-08-19T00:10:58;101086.90;;;19.45;43.68
39954;BME280;25631;51.516;-0.470;2022-08-19T00:13:34;101086.42;;;19.49;43.90
39954;BME280;25631;51.516;-0.470;2022-08-19T00:16:10;101086.98;;;19.54;43.93
39954;BME280;25631;51.516;-0.470;2022-08-19T00:18:47;101089.82;;;19.51;43.83
39954;BME280;25631;51.516;-0.470;2022-08-19T00:21:25;101088.44;;;19.95;43.72
39954;BME280;25631;51.516;-0.470;2022-08-19T00:24:02;101081.68;;;19.73;43.73
39954;BME280;25631;51.516;-0.470;2022-08-19T00:26:39;101086.11;;;19.61;43.85
39954;BME280;25631;51.516;-0.470;2022-08-19T00:29:19;101083.03;;;19.66;43.68
39954;BME280;25631;51.516;-0.470;2022-08-19T00:31:55;101087.17;;;19.72;43.85
39954;BME280;25631;51.516;-0.470;2022-08-19T00:34:32;101080.69;;;19.45;44.03
39954;BME280;25631;51.516;-0.470;2022-08-19T00:37:09;101085.30;;;19.42;44.00
39954;BME280;25631;51.516;-0.470;2022-08-19T00:39:45;101086.70;;;19.58;43.95
39954;BME280;25631;51.516;-0.470;2022-08-19T00:42:22;101080.81;;;19.84;43.96
39954;BME280;25631;51.516;-0.470;2022-08-19T00:44:59;101076.60;;;19.37;44.13
39954;BME280;25631;51.516;-0.470;2022-08-19T00:47:35;101070.03;;;19.53;44.15
39954;BME280;25631;51.516;-0.470;2022-08-19T00:50:15;101069.21;;;19.49;44.18
39954;BME280;25631;51.516;-0.470;2022-08-19T00:52:53;101069.18;;;19.41;44.12
39954;BME280;25631;51.516;-0.470;2022-08-19T00:55:29;101069.26;;;19.39;43.99
39954;BME280;25631;51.516;-0.470;2022-08-19T00:58:09;101069.15;;;19.49;44.19
39954;BME280;25631;51.516;-0.470;2022-08-19T01:00:46;101065.72;;;19.56;44.18
39954;BME280;25631;51.516;-0.470;2022-08-19T01:03:24;101064.22;;;19.33;44.40
39954;BME280;25631;51.516;-0.470;2022-08-19T01:06:00;101063.28;;;19.52;44.50
39954;BME280;25631;51.516;-0.470;2022-08-19T01:08:37;101060.12;;;19.46;44.54
39954;BME280;25631;51.516;-0.470;2022-08-19T01:11:13;101060.99;;;19.29;44.65
39954;BME280;25631;51.516;-0.470;2022-08-19T01:13:50;101063.20;;;19.43;44.65
39954;BME280;25631;51.516;-0.470;2022-08-19T01:16:30;101068.05;;;19.46;44.74
39954;BME280;25631;51.516;-0.470;2022-08-19T01:19:15;101066.48;;;19.21;44.66
39954;BME280;25631;51.516;-0.470;2022-08-19T01:21:57;101063.06;;;19.51;44.57
39954;BME280;25631;51.516;-0.470;2022-08-19T01:24:37;101059.56;;;19.57;44.51
39954;BME280;25631;51.516;-0.470;2022-08-19T01:27:13;101059.70;;;19.62;44.44
39954;BME280;25631;51.516;-0.470;2022-08-19T01:29:50;101060.67;;;19.35;44.58
39954;BME280;25631;51.516;-0.470;2022-08-19T01:32:26;101062.53;;;19.34;44.64
39954;BME280;25631;51.516;-0.470;2022-08-19T01:35:04;101066.34;;;19.33;44.94
39954;BME280;25631;51.516;-0.470;2022-08-19T01:37:43;101071.36;;;19.39;44.85
39954;BME280;25631;51.516;-0.470;2022-08-19T01:40:22;101070.69;;;19.40;44.89
39954;BME280;25631;51.516;-0.470;2022-08-19T01:42:59;101065.59;;;19.30;44.89
39954;BME280;25631;51.516;-0.470;2022-08-19T01:45:36;101062.30;;;19.46;44.84
39954;BME280;25631;51.516;-0.470;2022-08-19T01:48:13;101063.70;;;19.38;44.95
39954;BME280;25631;51.516;-0.470;2022-08-19T01:50:50;101060.23;;;19.54;45.04
39954;BME280;25631;51.516;-0.470;2022-08-19T01:53:26;101057.92;;;19.25;45.04
39954;BME280;25631;51.516;-0.470;2022-08-19T01:56:04;101059.61;;;19.35;45.34
39954;BME280;25631;51.516;-0.470;2022-08-19T01:58:44;101060.39;;;19.38;45.31
39954;BME280;25631;51.516;-0.470;2022-08-19T02:01:23;101059.85;;;19.29;45.55
39954;BME280;25631;51.516;-0.470;2022-08-19T02:03:59;101059.51;;;19.35;45.37
39954;BME280;25631;51.516;-0.470;2022-08-19T02:06:36;101058.29;;;19.21;45.48
39954;BME280;25631;51.516;-0.470;2022-08-19T02:09:12;101059.11;;;19.26;45.60
39954;BME280;25631;51.516;-0.470;2022-08-19T02:11:49;101062.84;;;19.14;45.34
39954;BME280;25631;51.516;-0.470;2022-08-19T02:14:26;101064.39;;;19.34;45.46
39954;BME280;25631;51.516;-0.470;2022-08-19T02:17:02;101066.05;;;19.39;45.38
39954;BME280;25631;51.516;-0.470;2022-08-19T02:19:39;101064.29;;;19.08;45.80
39954;BME280;25631;51.516;-0.470;2022-08-19T02:22:15;101065.94;;;19.38;45.78
39954;BME280;25631;51.516;-0.470;2022-08-19T02:24:52;101064.39;;;19.44;46.08
39954;BME280;25631;51.516;-0.470;2022-08-19T02:27:29;101065.65;;;19.28;46.07
39954;BME280;25631;51.516;-0.470;2022-08-19T02:30:08;101065.69;;;19.43;45.88
39954;BME280;25631;51.516;-0.470;2022-08-19T02:32:44;101062.44;;;19.03;45.92
39954;BME280;25631;51.516;-0.470;2022-08-19T02:35:21;101062.07;;;19.11;46.02
39954;BME280;25631;51.516;-0.470;2022-08-19T02:37:58;101064.18;;;19.42;45.83
39954;BME280;25631;51.516;-0.470;2022-08-19T02:40:35;101064.70;;;19.27;45.75
39954;BME280;25631;51.516;-0.470;2022-08-19T02:43:11;101066.40;;;19.28;45.74
39954;BME280;25631;51.516;-0.470;2022-08-19T02:45:48;101069.58;;;19.52;45.73
39954;BME280;25631;51.516;-0.470;2022-08-19T02:48:25;101068.92;;;19.11;45.83
39954;BME280;25631;51.516;-0.470;2022-08-19T02:51:02;101065.21;;;19.30;45.63
39954;BME280;25631;51.516;-0.470;2022-08-19T02:53:38;101069.01;;;19.10;45.68
39954;BME280;25631;51.516;-0.470;2022-08-19T02:56:15;101069.60;;;19.38;45.71
39954;BME280;25631;51.516;-0.470;2022-08-19T02:58:52;101068.95;;;19.39;45.73
39954;BME280;25631;51.516;-0.470;2022-08-19T03:01:31;101070.12;;;19.50;45.65
39954;BME280;25631;51.516;-0.470;2022-08-19T03:04:10;101072.08;;;19.41;45.88
39954;BME280;25631;51.516;-0.470;2022-08-19T03:06:47;101071.59;;;19.24;45.94
39954;BME280;25631;51.516;-0.470;2022-08-19T03:09:23;101073.01;;;18.97;45.90
39954;BME280;25631;51.516;-0.470;2022-08-19T03:11:59;101071.81;;;19.41;45.87
39954;BME280;25631;51.516;-0.470;2022-08-19T03:14:36;101074.78;;;19.44;45.87
39954;BME280;25631;51.516;-0.470;2022-08-19T03:17:13;101075.47;;;19.53;45.88
39954;BME280;25631;51.516;-0.470;2022-08-19T03:19:49;101071.73;;;19.46;45.83
39954;BME280;25631;51.516;-0.470;2022-08-19T03:22:26;101072.42;;;19.41;45.90
39954;BME280;25631;51.516;-0.470;2022-08-19T03:25:03;101075.89;;;19.33;45.99
39954;BME280;25631;51.516;-0.470;2022-08-19T03:27:39;101072.20;;;19.33;46.05
39954;BME280;25631;51.516;-0.470;2022-08-19T03:30:16;101071.67;;;18.86;46.36
39954;BME280;25631;51.516;-0.470;2022-08-19T03:32:52;101069.70;;;18.98;46.45
39954;BME280;25631;51.516;-0.470;2022-08-19T03:35:29;101070.90;;;19.01;46.31
39954;BME280;25631;51.516;-0.470;2022-08-19T03:38:05;101075.71;;;19.08;46.52
39954;BME280;25631;51.516;-0.470;2022-08-19T03:40:42;101072.87;;;19.06;46.52
39954;BME280;25631;51.516;-0.470;2022-08-19T03:43:18;101077.56;;;19.17;46.57
39954;BME280;25631;51.516;-0.470;2022-08-19T03:46:00;101075.61;;;19.20;46.51
39954;BME280;25631;51.516;-0.470;2022-08-19T03:48:38;101078.25;;;19.18;46.56
39954;BME280;25631;51.516;-0.470;2022-08-19T03:51:17;101077.35;;;19.37;46.48
39954;BME280;25631;51.516;-0.470;2022-08-19T03:53:55;101085.27;;;19.30;46.68
39954;BME280;25631;51.516;-0.470;2022-08-19T03:56:33;101078.67;;;19.18;46.61
39954;BME280;25631;51.516;-0.470;2022-08-19T03:59:12;101082.43;;;18.73;46.98
39954;BME280;25631;51.516;-0.470;2022-08-19T04:01:49;101083.73;;;19.06;46.92
39954;BME280;25631;51.516;-0.470;2022-08-19T04:04:26;101085.44;;;19.02;46.89
39954;BME280;25631;51.516;-0.470;2022-08-19T04:07:03;101085.55;;;18.98;47.14
39954;BME280;25631;51.516;-0.470;2022-08-19T04:09:39;101087.43;;;19.11;47.15
39954;BME280;25631;51.516;-0.470;2022-08-19T04:12:15;101088.11;;;18.97;47.30
39954;BME280;25631;51.516;-0.470;2022-08-19T04:14:52;101089.38;;;19.03;47.39
39954;BME280;25631;51.516;-0.470;2022-08-19T04:17:28;101089.29;;;18.67;47.43
39954;BME280;25631;51.516;-0.470;2022-08-19T04:20:05;101094.73;;;18.78;47.50
39954;BME280;25631;51.516;-0.470;2022-08-19T04:22:42;101090.92;;;18.73;47.40
39954;BME280;25631;51.516;-0.470;2022-08-19T04:25:18;101085.79;;;18.97;47.20
39954;BME280;25631;51.516;-0.470;2022-08-19T04:27:54;101081.99;;;18.95;47.14
39954;BME280;25631;51.516;-0.470;2022-08-19T04:30:36;101087.32;;;18.82;47.09
39954;BME280;25631;51.516;-0.470;2022-08-19T04:33:14;101087.31;;;18.85;46.83
39954;BME280;25631;51.516;-0.470;2022-08-19T04:35:52;101091.64;;;18.94;46.81
39954;BME280;25631;51.516;-0.470;2022-08-19T04:38:29;101090.41;;;19.01;46.75
39954;BME280;25631;51.516;-0.470;2022-08-19T04:41:05;101089.31;;;18.73;46.77
39954;BME280;25631;51.516;-0.470;2022-08-19T04:43:41;101095.23;;;18.66;46.73
39954;BME280;25631;51.516;-0.470;2022-08-19T04:46:20;101097.51;;;18.78;46.59
39954;BME280;25631;51.516;-0.470;2022-08-19T04:48:57;101101.13;;;18.82;46.46
39954;BME280;25631;51.516;-0.470;2022-08-19T04:51:34;101104.39;;;18.84;46.31
39954;BME280;25631;51.516;-0.470;2022-08-19T04:54:11;101105.25;;;18.65;46.18
39954;BME280;25631;51.516;-0.470;2022-08-19T04:56:47;101108.63;;;18.49;46.09
39954;BME280;25631;51.516;-0.470;2022-08-19T04:59:24;101116.33;;;18.79;46.09
39954;BME280;25631;51.516;-0.470;2022-08-19T05:02:00;101121.05;;;18.70;46.00
39954;BME280;25631;51.516;-0.470;2022-08-19T05:04:37;101121.63;;;18.47;45.81
39954;BME280;25631;51.516;-0.470;2022-08-19T05:07:14;101124.57;;;18.80;45.61
39954;BME280;25631;51.516;-0.470;2022-08-19T05:09:50;101125.66;;;18.84;45.47
39954;BME280;25631;51.516;-0.470;2022-08-19T05:12:27;101127.04;;;18.92;45.20
39954;BME280;25631;51.516;-0.470;2022-08-19T05:15:05;101135.08;;;18.90;45.08
39954;BME280;25631;51.516;-0.470;2022-08-19T05:17:42;101136.43;;;18.62;44.89
39954;BME280;25631;51.516;-0.470;2022-08-19T05:20:19;101142.85;;;18.79;44.73
39954;BME280;25631;51.516;-0.470;2022-08-19T05:22:55;101147.13;;;18.75;44.59
39954;BME280;25631;51.516;-0.470;2022-08-19T05:25:31;101150.37;;;18.25;44.41
39954;BME280;25631;51.516;-0.470;2022-08-19T05:28:08;101146.63;;;18.97;44.10
39954;BME280;25631;51.516;-0.470;2022-08-19T05:30:44;101142.80;;;19.06;43.69
39954;BME280;25631;51.516;-0.470;2022-08-19T05:33:21;101142.36;;;18.82;43.63
39954;BME280;25631;51.516;-0.470;2022-08-19T05:35:58;101145.34;;;19.02;43.58
39954;BME280;25631;51.516;-0.470;2022-08-19T05:38:35;101143.45;;;19.22;43.56
39954;BME280;25631;51.516;-0.470;2022-08-19T05:41:13;101139.82;;;19.01;43.51
39954;BME280;25631;51.516;-0.470;2022-08-19T05:43:50;101136.76;;;19.13;43.34
39954;BME280;25631;51.516;-0.470;2022-08-19T05:46:26;101134.45;;;19.18;43.10
39954;BME280;25631;51.516;-0.470;2022-08-19T05:49:03;101135.07;;;19.42;42.81
39954;BME280;25631;51.516;-0.470;2022-08-19T05:51:40;101137.02;;;19.22;42.20
39954;BME280;25631;51.516;-0.470;2022-08-19T05:54:17;101138.21;;;19.06;42.07
39954;BME280;25631;51.516;-0.470;2022-08-19T05:56:54;101137.17;;;19.05;42.00
39954;BME280;25631;51.516;-0.470;2022-08-19T05:59:30;101138.97;;;19.10;41.17
39954;BME280;25631;51.516;-0.470;2022-08-19T06:02:06;101146.07;;;18.90;41.04
39954;BME280;25631;51.516;-0.470;2022-08-19T06:04:43;101159.76;;;18.89;41.05
39954;BME280;25631;51.516;-0.470;2022-08-19T06:07:19;101152.73;;;18.83;41.08
39954;BME280;25631;51.516;-0.470;2022-08-19T06:09:56;101150.25;;;19.28;40.97
39954;BME280;25631;51.516;-0.470;2022-08-19T06:12:33;101155.64;;;18.98;41.00
39954;BME280;25631;51.516;-0.470;2022-08-19T06:15:12;101159.04;;;19.21;40.98
39954;BME280;25631;51.516;-0.470;2022-08-19T06:17:48;101158.75;;;19.08;40.87
39954;BME280;25631;51.516;-0.470;2022-08-19T06:20:25;101156.55;;;19.23;40.89
39954;BME280;25631;51.516;-0.470;2022-08-19T06:23:01;101158.96;;;19.23;40.92
39954;BME280;25631;51.516;-0.470;2022-08-19T06:25:39;101163.07;;;19.07;40.94
39954;BME280;25631;51.516;-0.470;2022-08-19T06:28:15;101165.63;;;19.24;41.12
39954;BME280;25631;51.516;-0.470;2022-08-19T06:30:52;101163.64;;;19.38;41.16
39954;BME280;25631;51.516;-0.470;2022-08-19T06:33:28;101163.84;;;19.18;41.25
39954;BME280;25631;51.516;-0.470;2022-08-19T06:36:05;101160.74;;;19.23;41.27
39954;BME280;25631;51.516;-0.470;2022-08-19T06:38:42;101160.06;;;19.21;41.47
39954;BME280;25631;51.516;-0.470;2022-08-19T06:41:18;101166.64;;;19.32;41.52
39954;BME280;25631;51.516;-0.470;2022-08-19T06:43:55;101163.24;;;19.11;41.53
39954;BME280;25631;51.516;-0.470;2022-08-19T06:46:31;101166.26;;;18.73;41.86
39954;BME280;25631;51.516;-0.470;2022-08-19T06:49:08;101169.90;;;19.09;42.08
39954;BME280;25631;51.516;-0.470;2022-08-19T06:51:46;101165.93;;;18.93;42.23
39954;BME280;25631;51.516;-0.470;2022-08-19T06:54:24;101171.20;;;19.03;42.30
39954;BME280;25631;51.516;-0.470;2022-08-19T06:57:01;101170.70;;;18.94;42.22
39954;BME280;25631;51.516;-0.470;2022-08-19T06:59:37;101170.87;;;18.75;42.21
39954;BME280;25631;51.516;-0.470;2022-08-19T07:02:14;101170.22;;;19.01;42.29
39954;BME280;25631;51.516;-0.470;2022-08-19T07:04:50;101172.37;;;18.84;42.00
39954;BME280;25631;51.516;-0.470;2022-08-19T07:07:27;101172.12;;;19.07;41.64
39954;BME280;25631;51.516;-0.470;2022-08-19T07:10:04;101170.56;;;19.02;41.34
39954;BME280;25631;51.516;-0.470;2022-08-19T07:12:41;101173.01;;;18.92;40.99
39954;BME280;25631;51.516;-0.470;2022-08-19T07:15:17;101175.39;;;18.66;40.96
39954;BME280;25631;51.516;-0.470;2022-08-19T07:17:53;101184.40;;;18.79;40.80
39954;BME280;25631;51.516;-0.470;2022-08-19T07:20:30;101182.84;;;19.01;40.23
39954;BME280;25631;51.516;-0.470;2022-08-19T07:23:06;101182.86;;;19.12;39.63
39954;BME280;25631;51.516;-0.470;2022-08-19T07:25:43;101184.03;;;19.24;39.54
39954;BME280;25631;51.516;-0.470;2022-08-19T07:28:20;101182.74;;;19.36;39.44
39954;BME280;25631;51.516;-0.470;2022-08-19T07:30:56;101184.80;;;19.47;39.17
39954;BME280;25631;51.516;-0.470;2022-08-19T07:33:33;101188.79;;;19.25;38.36
39954;BME280;25631;51.516;-0.470;2022-08-19T07:36:13;101188.40;;;19.30;38.13
39954;BME280;25631;51.516;-0.470;2022-08-19T07:38:51;101190.81;;;19.58;38.03
39954;BME280;25631;51.516;-0.470;2022-08-19T07:41:29;101192.39;;;19.51;37.44
39954;BME280;25631;51.516;-0.470;2022-08-19T07:44:06;101192.24;;;19.49;37.18
39954;BME280;25631;51.516;-0.470;2022-08-19T07:46:46;101193.39;;;19.62;36.08
39954;BME280;25631;51.516;-0.470;2022-08-19T07:49:23;101197.93;;;19.51;35.61
39954;BME280;25631;51.516;-0.470;2022-08-19T07:52:03;101202.81;;;19.16;35.45
39954;BME280;25631;51.516;-0.470;2022-08-19T07:54:40;101202.01;;;19.45;35.39
39954;BME280;25631;51.516;-0.470;2022-08-19T07:57:17;101202.70;;;18.85;35.57
39954;BME280;25631;51.516;-0.470;2022-08-19T07:59:54;101208.08;;;19.18;35.72
39954;BME280;25631;51.516;-0.470;2022-08-19T08:02:30;101216.62;;;18.73;35.76
39954;BME280;25631;51.516;-0.470;2022-08-19T08:05:08;101216.25;;;18.74;35.92
39954;BME280;25631;51.516;-0.470;2022-08-19T08:07:44;101218.93;;;18.64;35.99
39954;BME280;25631;51.516;-0.470;2022-08-19T08:10:20;101217.08;;;18.59;36.22
39954;BME280;25631;51.516;-0.470;2022-08-19T08:12:57;101220.19;;;18.78;36.21
39954;BME280;25631;51.516;-0.470;2022-08-19T08:15:34;101220.77;;;18.75;36.00
39954;BME280;25631;51.516;-0.470;2022-08-19T08:18:11;101212.58;;;18.75;35.94
39954;BME280;25631;51.516;-0.470;2022-08-19T08:20:47;101216.32;;;18.89;36.10
39954;BME280;25631;51.516;-0.470;2022-08-19T08:23:25;101220.04;;;18.98;36.28
39954;BME280;25631;51.516;-0.470;2022-08-19T08:26:02;101223.79;;;18.83;36.17
39954;BME280;25631;51.516;-0.470;2022-08-19T08:28:38;101227.79;;;18.83;36.19
39954;BME280;25631;51.516;-0.470;2022-08-19T08:31:15;101225.25;;;18.86;36.40
39954;BME280;25631;51.516;-0.470;2022-08-19T08:33:51;101222.88;;;19.05;36.51
39954;BME280;25631;51.516;-0.470;2022-08-19T08:36:28;101218.89;;;18.71;36.38
39954;BME280;25631;51.516;-0.470;2022-08-19T08:39:04;101216.40;;;18.84;36.44
39954;BME280;25631;51.516;-0.470;2022-08-19T08:41:46;101210.20;;;18.96;36.20
39954;BME280;25631;51.516;-0.470;2022-08-19T08:44:32;101212.40;;;19.23;36.13
39954;BME280;25631;51.516;-0.470;2022-08-19T08:47:18;101213.07;;;19.55;35.50
39954;BME280;25631;51.516;-0.470;2022-08-19T08:49:59;101211.96;;;19.75;33.62
39954;BME280;25631;51.516;-0.470;2022-08-19T08:52:42;101212.14;;;19.45;33.38
39954;BME280;25631;51.516;-0.470;2022-08-19T08:55:27;101219.18;;;19.53;33.00
39954;BME280;25631;51.516;-0.470;2022-08-19T08:58:06;101222.80;;;19.69;32.88
39954;BME280;25631;51.516;-0.470;2022-08-19T09:00:46;101217.19;;;19.57;32.74
39954;BME280;25631;51.516;-0.470;2022-08-19T09:03:26;101214.64;;;19.71;32.95
39954;BME280;25631;51.516;-0.470;2022-08-19T09:06:07;101214.01;;;19.65;32.95
39954;BME280;25631;51.516;-0.470;2022-08-19T09:08:51;101214.64;;;19.57;33.35
39954;BME280;25631;51.516;-0.470;2022-08-19T09:11:43;101222.27;;;19.79;33.42
39954;BME280;25631;51.516;-0.470;2022-08-19T09:14:34;101214.61;;;19.79;33.58
39954;BME280;25631;51.516;-0.470;2022-08-19T09:17:13;101216.48;;;19.72;33.58
39954;BME280;25631;51.516;-0.470;2022-08-19T09:19:53;101212.71;;;20.06;33.42
39954;BME280;25631;51.516;-0.470;2022-08-19T09:22:30;101219.10;;;20.10;33.60
39954;BME280;25631;51.516;-0.470;2022-08-19T09:25:10;101218.37;;;20.04;33.70
39954;BME280;25631;51.516;-0.470;2022-08-19T09:27:46;101217.78;;;20.14;33.69
39954;BME280;25631;51.516;-0.470;2022-08-19T09:30:25;101214.79;;;20.16;33.64
39954;BME280;25631;51.516;-0.470;2022-08-19T09:33:02;101214.88;;;20.63;33.53
39954;BME280;25631;51.516;-0.470;2022-08-19T09:35:38;101215.03;;;20.17;32.54
39954;BME280;25631;51.516;-0.470;2022-08-19T09:38:15;101221.30;;;20.19;32.32
39954;BME280;25631;51.516;-0.470;2022-08-19T09:40:51;101225.21;;;20.37;32.49
39954;BME280;25631;51.516;-0.470;2022-08-19T09:43:28;101226.94;;;20.41;32.30
39954;BME280;25631;51.516;-0.470;2022-08-19T09:46:06;101229.39;;;20.39;32.17
39954;BME280;25631;51.516;-0.470;2022-08-19T09:48:42;101221.52;;;20.17;32.69
39954;BME280;25631;51.516;-0.470;2022-08-19T09:51:21;101222.94;;;20.70;32.50
39954;BME280;25631;51.516;-0.470;2022-08-19T09:54:00;101219.44;;;20.21;31.84
39954;BME280;25631;51.516;-0.470;2022-08-19T09:56:38;101219.62;;;20.42;32.09
39954;BME280;25631;51.516;-0.470;2022-08-19T09:59:14;101223.42;;;20.13;31.99
39954;BME280;25631;51.516;-0.470;2022-08-19T10:01:51;101220.77;;;20.43;31.52
39954;BME280;25631;51.516;-0.470;2022-08-19T10:04:27;101226.78;;;20.56;31.40
39954;BME280;25631;51.516;-0.470;2022-08-19T10:07:04;101224.06;;;20.62;31.40
39954;BME280;25631;51.516;-0.470;2022-08-19T10:09:40;101226.48;;;20.96;31.26
39954;BME280;25631;51.516;-0.470;2022-08-19T10:12:16;101236.87;;;21.02;30.80
39954;BME280;25631;51.516;-0.470;2022-08-19T10:14:53;101225.64;;;20.99;30.36
39954;BME280;25631;51.516;-0.470;2022-08-19T10:17:29;101224.58;;;21.01;30.09
39954;BME280;25631;51.516;-0.470;2022-08-19T10:20:06;101218.46;;;21.06;29.89
39954;BME280;25631;51.516;-0.470;2022-08-19T10:22:43;101224.67;;;20.72;29.91
39954;BME280;25631;51.516;-0.470;2022-08-19T10:25:19;101223.82;;;20.86;29.89
39954;BME280;25631;51.516;-0.470;2022-08-19T10:27:56;101225.98;;;20.95;29.36
39954;BME280;25631;51.516;-0.470;2022-08-19T10:30:32;101222.03;;;20.77;29.01
39954;BME280;25631;51.516;-0.470;2022-08-19T10:33:09;101225.37;;;20.65;29.68
39954;BME280;25631;51.516;-0.470;2022-08-19T10:35:45;101230.48;;;20.69;29.98
39954;BME280;25631;51.516;-0.470;2022-08-19T10:38:22;101234.33;;;20.73;29.66
39954;BME280;25631;51.516;-0.470;2022-08-19T10:41:05;101237.93;;;21.17;29.42
39954;BME280;25631;51.516;-0.470;2022-08-19T10:43:43;101243.23;;;21.09;28.92
39954;BME280;25631;51.516;-0.470;2022-08-19T10:46:21;101244.73;;;21.29;28.83
39954;BME280;25631;51.516;-0.470;2022-08-19T10:48:59;101240.48;;;21.04;27.74
39954;BME280;25631;51.516;-0.470;2022-08-19T10:51:37;101243.52;;;21.14;27.71
39954;BME280;25631;51.516;-0.470;2022-08-19T10:54:14;101247.62;;;21.26;27.63
39954;BME280;25631;51.516;-0.470;2022-08-19T10:56:51;101256.09;;;21.31;28.18
39954;BME280;25631;51.516;-0.470;2022-08-19T10:59:28;101250.16;;;21.27;28.08
39954;BME280;25631;51.516;-0.470;2022-08-19T11:02:08;101253.07;;;21.52;27.87
39954;BME280;25631;51.516;-0.470;2022-08-19T11:04:45;101259.13;;;21.39;27.10
39954;BME280;25631;51.516;-0.470;2022-08-19T11:07:21;101261.39;;;21.63;27.83
39954;BME280;25631;51.516;-0.470;2022-08-19T11:09:57;101261.72;;;21.68;25.42
39954;BME280;25631;51.516;-0.470;2022-08-19T11:12:36;101263.97;;;21.89;25.43
39954;BME280;25631;51.516;-0.470;2022-08-19T11:15:13;101263.16;;;21.80;25.13
39954;BME280;25631;51.516;-0.470;2022-08-19T11:17:51;101263.75;;;21.86;25.42
39954;BME280;25631;51.516;-0.470;2022-08-19T11:20:27;101263.08;;;21.63;25.36
39954;BME280;25631;51.516;-0.470;2022-08-19T11:23:03;101260.99;;;21.46;25.28
39954;BME280;25631;51.516;-0.470;2022-08-19T11:25:40;101260.58;;;22.16;25.33
39954;BME280;25631;51.516;-0.470;2022-08-19T11:28:16;101261.39;;;22.08;25.14
39954;BME280;25631;51.516;-0.470;2022-08-19T11:30:53;101262.14;;;21.86;25.69
39954;BME280;25631;51.516;-0.470;2022-08-19T11:33:29;101257.51;;;21.84;25.05
39954;BME280;25631;51.516;-0.470;2022-08-19T11:36:06;101260.93;;;21.94;25.20
39954;BME280;25631;51.516;-0.470;2022-08-19T11:38:44;101264.01;;;22.13;25.43
39954;BME280;25631;51.516;-0.470;2022-08-19T11:41:22;101262.69;;;22.09;24.99
39954;BME280;25631;51.516;-0.470;2022-08-19T11:43:59;101262.00;;;21.95;24.37
39954;BME280;25631;51.516;-0.470;2022-08-19T11:46:37;101252.76;;;21.67;24.50
39954;BME280;25631;51.516;-0.470;2022-08-19T11:49:14;101254.46;;;21.92;24.32
39954;BME280;25631;51.516;-0.470;2022-08-19T11:51:51;101262.70;;;22.14;23.83
39954;BME280;25631;51.516;-0.470;2022-08-19T11:54:27;101256.84;;;22.26;23.89
39954;BME280;25631;51.516;-0.470;2022-08-19T11:57:04;101257.22;;;22.08;23.76
39954;BME280;25631;51.516;-0.470;2022-08-19T11:59:40;101264.06;;;22.05;24.20
39954;BME280;25631;51.516;-0.470;2022-08-19T12:02:17;101258.33;;;22.47;23.93
39954;BME280;25631;51.516;-0.470;2022-08-19T12:04:53;101260.94;;;22.22;24.36
39954;BME280;25631;51.516;-0.470;2022-08-19T12:07:30;101255.64;;;22.29;23.73
39954;BME280;25631;51.516;-0.470;2022-08-19T12:10:07;101256.54;;;22.62;23.37
39954;BME280;25631;51.516;-0.470;2022-08-19T12:12:43;101257.29;;;22.50;23.35
39954;BME280;25631;51.516;-0.470;2022-08-19T12:15:20;101264.16;;;22.57;22.89
39954;BME280;25631;51.516;-0.470;2022-08-19T12:17:57;101258.80;;;22.53;22.91
39954;BME280;25631;51.516;-0.470;2022-08-19T12:20:35;101266.12;;;22.37;22.33
39954;BME280;25631;51.516;-0.470;2022-08-19T12:23:11;101263.08;;;22.61;22.35
39954;BME280;25631;51.516;-0.470;2022-08-19T12:25:49;101258.57;;;22.83;21.43
39954;BME280;25631;51.516;-0.470;2022-08-19T12:28:25;101265.56;;;22.99;21.55
39954;BME280;25631;51.516;-0.470;2022-08-19T12:31:02;101257.59;;;22.67;21.33
39954;BME280;25631;51.516;-0.470;2022-08-19T12:33:39;101253.84;;;22.97;21.09
39954;BME280;25631;51.516;-0.470;2022-08-19T12:36:16;101256.09;;;22.93;20.92
39954;BME280;25631;51.516;-0.470;2022-08-19T12:38:53;101246.86;;;23.34;21.30
39954;BME280;25631;51.516;-0.470;2022-08-19T12:41:29;101244.67;;;22.73;20.85
39954;BME280;25631;51.516;-0.470;2022-08-19T12:44:06;101245.30;;;23.06;20.73
39954;BME280;25631;51.516;-0.470;2022-08-19T12:46:42;101246.12;;;23.32;20.54
39954;BME280;25631;51.516;-0.470;2022-08-19T12:49:18;101248.83;;;23.40;20.51
39954;BME280;25631;51.516;-0.470;2022-08-19T12:51:55;101245.14;;;23.58;19.99
39954;BME280;25631;51.516;-0.470;2022-08-19T12:54:31;101242.03;;;23.71;20.45
39954;BME280;25631;51.516;-0.470;2022-08-19T12:57:09;101243.12;;;23.84;20.08
39954;BME280;25631;51.516;-0.470;2022-08-19T12:59:46;101243.45;;;23.55;19.61
39954;BME280;25631;51.516;-0.470;2022-08-19T13:02:22;101235.57;;;23.68;19.95
39954;BME280;25631;51.516;-0.470;2022-08-19T13:04:59;101242.47;;;23.88;20.20
39954;BME280;25631;51.516;-0.470;2022-08-19T13:07:35;101249.85;;;23.63;20.04
39954;BME280;25631;51.516;-0.470;2022-08-19T13:10:14;101245.06;;;23.66;19.75
39954;BME280;25631;51.516;-0.470;2022-08-19T13:12:51;101245.18;;;23.57;20.11
39954;BME280;25631;51.516;-0.470;2022-08-19T13:15:28;101239.01;;;24.00;20.27
39954;BME280;25631;51.516;-0.470;2022-08-19T13:18:06;101240.57;;;23.89;19.93
39954;BME280;25631;51.516;-0.470;2022-08-19T13:20:43;101237.65;;;23.63;19.76
39954;BME280;25631;51.516;-0.470;2022-08-19T13:23:19;101233.06;;;24.05;20.23
39954;BME280;25631;51.516;-0.470;2022-08-19T13:25:57;101233.60;;;24.34;20.34
39954;BME280;25631;51.516;-0.470;2022-08-19T13:28:34;101231.87;;;24.23;19.62
39954;BME280;25631;51.516;-0.470;2022-08-19T13:31:11;101232.18;;;24.33;19.19